Time;durP1;ratioP1;P1;durP2;ratioP2;P2;SDS_P1;SDS_P2;PMS_P1;PMS_P2;Temp;Humidity;BMP_temperature;BMP_pressure;BME280_temperature;BME280_humidity;BME280_pressure;Samples;Min_cycle;Max_cycle;Signal;HPM_P1;HPM_P2
2023/08/24 00:01:37;;;;;;;6.30;3.77;;;;;;;18.81;68.78;100401.81;4202065;28;20425;-72
2023/08/24 00:04:04;;;;;;;12.17;4.00;;;;;;;18.78;68.93;100396.75;4208580;28;20233;-71
2023/08/24 00:06:31;;;;;;;9.80;4.00;;;;;;;18.72;69.08;100392.09;4188769;28;20317;-70
2023/08/24 00:08:59;;;;;;;6.70;3.77;;;;;;;18.68;69.20;100397.13;4197175;28;22002;-72
2023/08/24 00:11:25;;;;;;;8.13;4.07;;;;;;;18.63;69.78;100402.34;4203285;28;20313;-73
2023/08/24 00:13:53;;;;;;;7.70;4.40;;;;;;;18.54;70.32;100400.84;4178639;28;20244;-71
2023/08/24 00:16:20;;;;;;;8.73;3.87;;;;;;;18.48;70.31;100387.91;4192563;28;20352;-72
2023/08/24 00:18:47;;;;;;;13.00;4.30;;;;;;;18.43;70.54;100398.66;4177323;28;25694;-72
2023/08/24 00:21:19;;;;;;;8.40;3.50;;;;;;;18.51;70.38;100395.75;4202203;28;20856;-72
2023/08/24 00:23:46;;;;;;;7.97;3.70;;;;;;;18.49;70.21;100395.09;4203978;28;20252;-71
2023/08/24 00:26:12;;;;;;;6.50;3.67;;;;;;;18.47;70.27;100386.22;4204548;28;20247;-69
2023/08/24 00:28:39;;;;;;;9.27;3.83;;;;;;;18.37;70.36;100384.72;4197980;28;20244;-71
2023/08/24 00:31:06;;;;;;;9.63;3.83;;;;;;;18.30;70.65;100388.44;4190353;28;20319;-72
2023/08/24 00:33:32;;;;;;;12.63;3.90;;;;;;;18.18;71.13;100389.00;4198504;28;21025;-71
2023/08/24 00:36:01;;;;;;;7.27;3.90;;;;;;;18.13;71.07;100387.88;4200732;28;20776;-71
2023/08/24 00:38:28;;;;;;;7.10;3.70;;;;;;;18.11;71.24;100392.72;4191317;28;20240;-70
2023/08/24 00:40:56;;;;;;;9.13;3.73;;;;;;;17.91;72.02;100390.63;4191229;28;20429;-72
2023/08/24 00:43:23;;;;;;;8.83;3.80;;;;;;;17.76;73.08;100384.38;4194789;28;22788;-71
2023/08/24 00:45:51;;;;;;;12.87;4.90;;;;;;;17.82;72.39;100378.09;4190177;28;21541;-71
2023/08/24 00:48:19;;;;;;;8.33;4.00;;;;;;;17.84;72.03;100385.09;4189443;28;20237;-71
2023/08/24 00:50:45;;;;;;;6.57;3.80;;;;;;;18.00;71.84;100388.63;4207845;28;22246;-71
2023/08/24 00:53:12;;;;;;;13.03;3.80;;;;;;;18.03;71.79;100388.25;4198267;28;20505;-72
2023/08/24 00:55:39;;;;;;;7.67;3.80;;;;;;;17.99;71.92;100386.91;4203093;28;20237;-70
2023/08/24 00:58:06;;;;;;;9.43;3.97;;;;;;;18.13;71.05;100383.25;4182000;28;20275;-72
2023/08/24 01:00:33;;;;;;;9.13;3.67;;;;;;;17.95;72.19;100393.81;4212854;28;22455;-70
2023/08/24 01:03:00;;;;;;;8.33;3.70;;;;;;;17.99;72.20;100390.53;4206073;28;20239;-69
2023/08/24 01:05:28;;;;;;;7.33;3.73;;;;;;;18.12;71.47;100386.19;4200261;28;20522;-68
2023/08/24 01:07:54;;;;;;;12.30;4.03;;;;;;;17.99;72.54;100385.03;4199385;28;20248;-70
2023/08/24 01:10:21;;;;;;;7.80;3.43;;;;;;;18.01;71.61;100391.16;4204963;28;20229;-70
2023/08/24 01:12:55;;;;;;;10.47;4.50;;;;;;;17.96;72.49;100387.34;4191127;28;22280;-72
2023/08/24 01:15:46;;;;;;;9.13;4.13;;;;;;;17.94;72.38;100390.22;4207890;28;20224;-70
2023/08/24 01:18:18;;;;;;;10.37;4.13;;;;;;;17.91;72.28;100385.16;4217029;28;21114;-70
2023/08/24 01:20:45;;;;;;;7.53;3.90;;;;;;;17.83;72.11;100385.28;4196510;28;22837;-70
2023/08/24 01:23:29;;;;;;;10.27;3.67;;;;;;;17.97;71.87;100383.56;4197000;28;22006;-70
2023/08/24 01:26:04;;;;;;;7.33;3.87;;;;;;;18.04;71.31;100381.72;4194940;28;22964;-70
2023/08/24 01:28:31;;;;;;;7.40;4.07;;;;;;;18.00;71.63;100385.88;4182553;28;20838;-73
2023/08/24 01:30:58;;;;;;;6.70;3.17;;;;;;;17.94;71.89;100379.25;4186365;28;20228;-70
2023/08/24 01:33:25;;;;;;;7.73;3.67;;;;;;;17.97;71.74;100373.44;4199557;28;20236;-68
2023/08/24 01:35:51;;;;;;;7.93;3.10;;;;;;;17.96;71.75;100379.13;4188047;28;20275;-69
2023/08/24 01:38:18;;;;;;;7.90;3.97;;;;;;;17.96;71.29;100381.84;4183526;28;20614;-70
2023/08/24 01:40:46;;;;;;;11.43;3.83;;;;;;;17.87;71.93;100376.47;4201816;28;20252;-71
2023/08/24 01:43:13;;;;;;;5.93;3.40;;;;;;;17.79;72.52;100371.16;4195500;28;22251;-71
2023/08/24 01:45:44;;;;;;;10.73;3.50;;;;;;;17.81;72.48;100374.53;4187884;28;20227;-70
2023/08/24 01:48:10;;;;;;;5.83;3.33;;;;;;;17.74;72.76;100374.47;4191332;28;21661;-72
2023/08/24 01:50:37;;;;;;;5.90;3.20;;;;;;;17.67;73.18;100367.25;4213739;28;21255;-70
2023/08/24 01:53:04;;;;;;;14.37;4.23;;;;;;;17.63;73.21;100369.53;4183797;28;20316;-69
2023/08/24 01:55:30;;;;;;;8.97;4.07;;;;;;;17.55;73.44;100361.44;4188487;28;21886;-70
2023/08/24 01:57:58;;;;;;;7.00;3.70;;;;;;;17.49;73.42;100368.53;4192542;28;20343;-71
2023/08/24 02:00:24;;;;;;;9.60;3.50;;;;;;;17.51;73.29;100362.88;4198888;28;20498;-70
2023/08/24 02:02:51;;;;;;;11.07;4.13;;;;;;;17.53;73.06;100358.88;4200049;28;20422;-70
2023/08/24 02:05:17;;;;;;;5.83;3.67;;;;;;;17.51;73.26;100357.38;4189972;28;20232;-71
2023/08/24 02:07:44;;;;;;;6.50;3.50;;;;;;;17.45;73.30;100358.19;4200794;28;20233;-70
2023/08/24 02:10:11;;;;;;;8.90;3.83;;;;;;;17.40;73.46;100361.50;4198030;28;20304;-72
2023/08/24 02:12:37;;;;;;;9.33;3.70;;;;;;;17.42;73.39;100354.78;4193449;28;20311;-71
2023/08/24 02:15:04;;;;;;;9.33;3.40;;;;;;;17.35;73.62;100359.34;4193252;28;20240;-71
2023/08/24 02:17:31;;;;;;;9.07;3.93;;;;;;;17.32;73.72;100362.47;4191269;28;20469;-71
2023/08/24 02:19:57;;;;;;;6.67;3.43;;;;;;;17.42;73.47;100356.69;4188939;28;20237;-72
2023/08/24 02:22:24;;;;;;;6.60;3.37;;;;;;;17.40;73.60;100359.63;4197280;28;20407;-71
2023/08/24 02:24:51;;;;;;;5.47;3.63;;;;;;;17.30;74.05;100350.88;4199942;28;20251;-67
2023/08/24 02:27:17;;;;;;;6.33;3.20;;;;;;;17.26;73.97;100355.00;4194291;28;21185;-67
2023/08/24 02:29:44;;;;;;;8.77;3.67;;;;;;;17.34;73.72;100363.09;4205562;28;24869;-66
2023/08/24 02:32:11;;;;;;;6.30;3.10;;;;;;;17.31;73.72;100360.78;4189076;28;20309;-68
2023/08/24 02:34:38;;;;;;;7.60;3.93;;;;;;;17.51;73.42;100355.50;4194674;28;23242;-68
2023/08/24 02:37:05;;;;;;;10.17;4.40;;;;;;;17.61;73.05;100357.06;4178906;28;21032;-67
2023/08/24 02:39:31;;;;;;;13.30;3.80;;;;;;;17.69;72.53;100356.94;4203808;28;27027;-65
2023/08/24 02:41:58;;;;;;;9.23;4.43;;;;;;;17.68;72.75;100360.69;4198444;28;20241;-65
2023/08/24 02:44:26;;;;;;;11.77;3.57;;;;;;;17.64;72.87;100352.03;4192084;28;20365;-68
2023/08/24 02:46:54;;;;;;;7.27;3.77;;;;;;;17.58;73.23;100356.44;4180525;28;21459;-68
2023/08/24 02:49:20;;;;;;;11.80;4.40;;;;;;;17.45;73.44;100352.69;4195016;28;20244;-65
2023/08/24 02:51:47;;;;;;;7.87;3.90;;;;;;;17.38;73.97;100358.09;4196824;28;20237;-65
2023/08/24 02:54:13;;;;;;;8.57;3.60;;;;;;;17.33;74.04;100358.69;4192313;28;20323;-67
2023/08/24 02:56:40;;;;;;;12.37;4.00;;;;;;;17.32;74.28;100364.34;4201496;28;20523;-65
2023/08/24 02:59:06;;;;;;;11.00;4.33;;;;;;;17.34;74.21;100367.75;4200072;28;20253;-67
2023/08/24 03:01:33;;;;;;;8.00;3.87;;;;;;;17.40;74.09;100358.75;4181556;28;21478;-66
2023/08/24 03:04:01;;;;;;;10.67;4.10;;;;;;;17.47;73.61;100367.88;4195885;28;20233;-68
2023/08/24 03:06:28;;;;;;;6.00;3.60;;;;;;;17.49;73.58;100364.94;4196165;28;20424;-67
2023/08/24 03:08:55;;;;;;;8.50;4.30;;;;;;;17.48;73.42;100355.91;4199715;28;20482;-69
2023/08/24 03:11:21;;;;;;;9.53;3.93;;;;;;;17.45;73.68;100358.19;4198556;28;20546;-70
2023/08/24 03:13:48;;;;;;;10.13;4.13;;;;;;;17.46;73.79;100365.34;4191010;28;20228;-67
2023/08/24 03:16:14;;;;;;;13.60;4.20;;;;;;;17.49;73.38;100357.59;4207790;28;20229;-68
2023/08/24 03:18:41;;;;;;;8.20;3.83;;;;;;;17.64;72.96;100364.88;4201315;28;22281;-69
2023/08/24 03:21:08;;;;;;;11.17;4.13;;;;;;;17.51;73.27;100351.91;4195478;28;21883;-70
2023/08/24 03:23:35;;;;;;;10.27;4.03;;;;;;;17.43;73.40;100355.63;4204883;28;20327;-64
2023/08/24 03:26:03;;;;;;;9.37;3.47;;;;;;;17.48;73.30;100347.69;4178430;28;20270;-69
2023/08/24 03:28:29;;;;;;;8.07;4.10;;;;;;;17.56;72.94;100349.47;4194723;28;20318;-66
2023/08/24 03:30:56;;;;;;;8.83;3.93;;;;;;;17.58;72.45;100356.44;4193387;28;20864;-68
2023/08/24 03:33:23;;;;;;;8.87;3.60;;;;;;;17.64;72.01;100343.81;4187241;28;20312;-68
2023/08/24 03:35:50;;;;;;;9.13;3.40;;;;;;;17.74;71.47;100352.56;4185131;28;20523;-68
2023/08/24 03:38:16;;;;;;;7.30;4.00;;;;;;;17.79;71.23;100351.16;4203516;28;20668;-67
2023/08/24 03:40:43;;;;;;;8.23;3.90;;;;;;;17.62;71.92;100351.41;4193285;28;20258;-67
2023/08/24 03:43:09;;;;;;;10.97;4.03;;;;;;;17.64;71.77;100351.19;4189886;28;20236;-67
2023/08/24 03:45:36;;;;;;;7.90;4.03;;;;;;;17.59;72.26;100346.31;4200540;28;20441;-68
2023/08/24 03:48:03;;;;;;;9.43;3.77;;;;;;;17.53;72.57;100344.38;4195043;28;20329;-67
2023/08/24 03:50:30;;;;;;;8.67;3.70;;;;;;;17.50;72.53;100350.22;4200658;28;20560;-67
2023/08/24 03:52:57;;;;;;;7.67;3.73;;;;;;;17.48;72.75;100344.94;4229141;28;20481;-67
2023/08/24 03:55:24;;;;;;;7.50;4.03;;;;;;;17.37;72.78;100340.00;4209859;28;20427;-68
2023/08/24 03:57:51;;;;;;;7.27;3.77;;;;;;;17.38;72.48;100348.00;4253975;28;21532;-67
2023/08/24 04:00:19;;;;;;;10.03;3.73;;;;;;;17.30;72.94;100344.53;4223562;28;20298;-67
2023/08/24 04:02:46;;;;;;;11.77;3.80;;;;;;;17.16;73.84;100352.59;4208540;28;21088;-65
2023/08/24 04:05:13;;;;;;;9.00;4.30;;;;;;;17.30;72.81;100350.00;4200489;28;20229;-66
2023/08/24 04:07:41;;;;;;;9.90;4.40;;;;;;;17.23;73.16;100353.53;4191309;28;20337;-66
2023/08/24 04:10:08;;;;;;;14.97;4.20;;;;;;;17.07;74.34;100357.34;4234571;28;20235;-67
2023/08/24 04:12:35;;;;;;;11.53;4.53;;;;;;;16.95;74.97;100364.38;4210228;28;20239;-66
2023/08/24 04:15:03;;;;;;;8.73;4.47;;;;;;;16.91;75.04;100361.13;4190920;28;21477;-65
2023/08/24 04:17:29;;;;;;;10.37;4.00;;;;;;;16.90;75.10;100364.91;4197744;28;20700;-67
2023/08/24 04:19:56;;;;;;;8.13;3.60;;;;;;;16.90;75.01;100367.63;4217619;28;20330;-67
2023/08/24 04:22:23;;;;;;;10.50;4.10;;;;;;;16.99;74.69;100371.13;4202801;28;20225;-68
2023/08/24 04:24:50;;;;;;;5.57;3.73;;;;;;;16.92;75.43;100365.56;4194982;28;20426;-68
2023/08/24 04:27:16;;;;;;;15.07;3.70;;;;;;;16.93;75.11;100370.00;4208794;28;20240;-65
2023/08/24 04:29:43;;;;;;;12.90;3.80;;;;;;;17.01;74.99;100362.72;4233082;28;20640;-69
2023/08/24 04:32:10;;;;;;;10.57;4.00;;;;;;;17.09;74.37;100362.63;4188022;28;20649;-66
2023/08/24 04:34:36;;;;;;;10.37;3.73;;;;;;;17.13;74.42;100358.47;4202690;28;20237;-67
2023/08/24 04:37:03;;;;;;;7.87;4.10;;;;;;;17.26;73.89;100357.75;4229903;28;25703;-70
2023/08/24 04:39:30;;;;;;;10.30;3.67;;;;;;;17.49;73.38;100352.13;4214612;28;25644;-67
2023/08/24 04:41:57;;;;;;;9.27;3.70;;;;;;;17.82;71.49;100362.53;4190917;28;20232;-65
2023/08/24 04:44:24;;;;;;;9.20;3.70;;;;;;;17.90;70.65;100354.16;4208831;28;20292;-66
2023/08/24 04:46:51;;;;;;;10.63;3.80;;;;;;;18.00;70.10;100361.22;4212938;28;20230;-67
2023/08/24 04:49:17;;;;;;;8.73;4.10;;;;;;;18.09;70.00;100362.78;4190783;28;22803;-65
2023/08/24 04:51:44;;;;;;;15.70;4.03;;;;;;;18.23;69.11;100358.25;4199580;28;20280;-66
2023/08/24 04:54:11;;;;;;;10.87;4.40;;;;;;;18.19;69.42;100360.56;4206567;28;21095;-65
2023/08/24 04:56:37;;;;;;;7.53;3.90;;;;;;;18.42;68.49;100359.44;4198376;28;22110;-65
2023/08/24 04:59:04;;;;;;;8.37;4.07;;;;;;;18.55;67.81;100366.03;4198984;28;20300;-68
2023/08/24 05:01:31;;;;;;;9.00;3.90;;;;;;;18.58;67.45;100368.41;4192443;28;23011;-64
2023/08/24 05:03:58;;;;;;;9.53;3.93;;;;;;;18.73;67.35;100360.84;4200417;28;21777;-64
2023/08/24 05:06:24;;;;;;;12.23;4.00;;;;;;;18.80;66.98;100358.16;4202692;28;20407;-67
2023/08/24 05:08:51;;;;;;;9.20;3.70;;;;;;;18.96;66.53;100366.06;4214936;28;20876;-67
2023/08/24 05:11:19;;;;;;;12.13;3.93;;;;;;;19.14;66.10;100364.66;4203098;28;20244;-68
2023/08/24 05:13:46;;;;;;;8.73;3.80;;;;;;;19.25;65.37;100361.31;4190490;28;21077;-67
2023/08/24 05:16:13;;;;;;;10.57;3.57;;;;;;;19.32;65.49;100367.66;4199817;28;20237;-67
2023/08/24 05:18:40;;;;;;;10.50;3.50;;;;;;;19.35;65.22;100366.41;4199694;28;20233;-70
2023/08/24 05:21:07;;;;;;;7.07;3.60;;;;;;;19.41;64.93;100372.97;4191625;28;20229;-68
2023/08/24 05:23:35;;;;;;;11.50;3.97;;;;;;;19.23;65.77;100366.16;4198326;28;20296;-67
2023/08/24 05:26:02;;;;;;;12.37;4.17;;;;;;;19.43;65.10;100368.13;4224418;28;20337;-67
2023/08/24 05:28:30;;;;;;;9.77;4.33;;;;;;;19.25;66.64;100374.22;4185664;28;24576;-66
2023/08/24 05:30:57;;;;;;;8.90;3.90;;;;;;;19.31;66.03;100374.22;4192066;28;20229;-65
2023/08/24 05:33:25;;;;;;;10.37;4.00;;;;;;;19.13;67.01;100376.69;4205441;28;20410;-66
2023/08/24 05:35:52;;;;;;;8.23;3.90;;;;;;;19.06;67.28;100373.91;4210952;28;20237;-65
2023/08/24 05:38:19;;;;;;;8.10;3.50;;;;;;;19.19;67.19;100375.00;4192392;28;20639;-64
2023/08/24 05:40:49;;;;;;;10.23;3.40;;;;;;;19.18;67.02;100368.69;4194142;28;20427;-65
2023/08/24 05:43:16;;;;;;;11.33;4.00;;;;;;;19.17;66.99;100369.72;4208157;28;20245;-69
2023/08/24 05:45:44;;;;;;;17.17;3.70;;;;;;;19.26;67.00;100368.50;4194840;28;20314;-68
2023/08/24 05:48:11;;;;;;;10.53;3.57;;;;;;;19.29;66.28;100379.06;4191361;28;21587;-66
2023/08/24 05:50:45;;;;;;;7.13;3.33;;;;;;;19.44;66.31;100383.53;4201213;28;20253;-65
2023/08/24 05:53:12;;;;;;;9.63;3.33;;;;;;;19.47;66.64;100380.38;4167997;28;20237;-65
2023/08/24 05:55:39;;;;;;;12.70;3.67;;;;;;;19.44;66.45;100381.63;4182277;28;21818;-66
2023/08/24 05:58:06;;;;;;;10.37;3.80;;;;;;;19.42;66.33;100386.47;4206511;28;20233;-67
2023/08/24 06:00:33;;;;;;;9.47;3.30;;;;;;;19.66;65.33;100386.13;4194621;28;23017;-66
2023/08/24 06:03:00;;;;;;;9.57;3.97;;;;;;;19.57;65.84;100374.47;4196852;28;20313;-68
2023/08/24 06:05:27;;;;;;;12.87;4.00;;;;;;;19.50;65.56;100379.97;4180422;28;20321;-69
2023/08/24 06:07:54;;;;;;;10.37;3.80;;;;;;;19.53;66.03;100381.44;4192106;28;20237;-68
2023/08/24 06:10:21;;;;;;;8.53;3.43;;;;;;;19.49;66.39;100375.53;4196552;28;20395;-66
2023/08/24 06:12:48;;;;;;;12.13;3.90;;;;;;;19.59;66.58;100381.47;4204989;28;22884;-67
2023/08/24 06:15:15;;;;;;;10.33;4.07;;;;;;;19.70;66.55;100376.41;4190789;28;21795;-67
2023/08/24 06:17:42;;;;;;;6.80;3.60;;;;;;;19.75;65.21;100374.72;4201672;28;21481;-64
2023/08/24 06:20:10;;;;;;;10.23;3.77;;;;;;;19.96;65.20;100375.59;4193643;28;20611;-66
2023/08/24 06:22:37;;;;;;;10.33;3.80;;;;;;;20.01;65.03;100373.09;4208530;28;20240;-66
2023/08/24 06:25:05;;;;;;;7.70;3.33;;;;;;;19.98;65.21;100372.66;4203448;28;20627;-45
2023/08/24 06:27:32;;;;;;;10.17;4.00;;;;;;;20.06;65.13;100375.19;4196824;28;20247;-42
2023/08/24 06:29:58;;;;;;;8.07;3.80;;;;;;;20.35;64.37;100375.81;4200807;28;20239;-47
2023/08/24 06:32:25;;;;;;;10.67;3.87;;;;;;;20.58;63.91;100378.91;4206566;28;21664;-48
2023/08/24 06:34:51;;;;;;;9.67;3.57;;;;;;;20.65;63.12;100384.41;4194701;28;21744;-50
2023/08/24 06:37:18;;;;;;;9.67;3.93;;;;;;;20.60;63.85;100378.72;4195969;28;20232;-67
2023/08/24 06:39:45;;;;;;;9.03;4.07;;;;;;;20.45;63.58;100370.69;4206731;28;20462;-65
2023/08/24 06:42:11;;;;;;;8.10;3.67;;;;;;;21.03;62.05;100377.34;4198660;28;21400;-65
2023/08/24 06:44:38;;;;;;;11.67;4.13;;;;;;;22.34;57.46;100373.28;4218295;28;20240;-68
2023/08/24 06:47:05;;;;;;;12.83;3.83;;;;;;;22.76;55.82;100373.50;4193736;28;22008;-70
2023/08/24 06:49:31;;;;;;;9.67;3.47;;;;;;;23.92;52.81;100374.50;4199951;28;20236;-72
2023/08/24 06:51:58;;;;;;;10.90;4.27;;;;;;;24.81;50.35;100376.34;4199652;28;20341;-68
2023/08/24 06:54:24;;;;;;;8.57;3.50;;;;;;;25.44;48.75;100366.28;4202463;28;22263;-67
2023/08/24 06:56:53;;;;;;;10.13;3.55;;;;;;;25.68;47.30;100380.00;4218795;28;20236;-67
2023/08/24 06:59:20;;;;;;;10.05;3.53;;;;;;;26.06;46.35;100364.56;4186130;28;20230;-67
2023/08/24 07:01:47;;;;;;;10.33;3.00;;;;;;;27.04;43.80;100370.72;4198832;28;20312;-68
2023/08/24 07:04:14;;;;;;;6.88;3.08;;;;;;;28.88;40.20;100383.75;4202508;28;21712;-67
2023/08/24 07:06:42;;;;;;;6.15;3.10;;;;;;;27.77;42.21;100378.75;4198393;28;20458;-69
2023/08/24 07:09:09;;;;;;;13.23;3.47;;;;;;;28.10;41.20;100379.63;4211843;28;20324;-68
2023/08/24 07:11:35;;;;;;;4.82;2.70;;;;;;;28.75;39.94;100387.03;4208897;28;20229;-69
2023/08/24 07:14:02;;;;;;;9.68;3.13;;;;;;;28.56;40.25;100384.66;4204465;28;20394;-66
2023/08/24 07:16:28;;;;;;;9.80;2.92;;;;;;;29.06;40.29;100384.41;4184375;28;20244;-68
2023/08/24 07:18:55;;;;;;;8.57;3.22;;;;;;;28.61;39.93;100389.44;4206493;28;22124;-67
2023/08/24 07:21:22;;;;;;;12.32;3.33;;;;;;;27.93;41.77;100390.03;4188022;28;20296;-69
2023/08/24 07:23:49;;;;;;;5.53;2.53;;;;;;;29.19;39.38;100399.78;4196812;28;20311;-68
2023/08/24 07:26:15;;;;;;;10.55;2.65;;;;;;;30.51;36.87;100391.03;4167793;28;20303;-69
2023/08/24 07:28:42;;;;;;;6.85;2.85;;;;;;;30.37;37.02;100396.31;4193967;28;21839;-69
2023/08/24 07:31:12;;;;;;;5.72;2.70;;;;;;;31.10;35.98;100386.69;4195394;28;20236;-69
2023/08/24 07:33:43;;;;;;;8.13;2.88;;;;;;;30.07;36.56;100383.25;4226939;28;21486;-68
2023/08/24 07:36:10;;;;;;;5.53;2.38;;;;;;;30.05;37.42;100394.69;4202309;28;20876;-69
2023/08/24 07:38:37;;;;;;;9.98;3.13;;;;;;;31.53;35.48;100383.38;4202407;28;21123;-70
2023/08/24 07:41:03;;;;;;;8.35;2.60;;;;;;;31.00;35.89;100385.88;4192889;28;20970;-68
2023/08/24 07:44:52;;;;;;;7.13;3.10;;;;;;;32.02;33.67;100389.19;4328365;27;20883;-70
2023/08/24 07:47:19;;;;;;;8.07;2.55;;;;;;;30.19;36.51;100384.63;4271201;28;20581;-68
2023/08/24 07:49:45;;;;;;;9.25;2.70;;;;;;;27.90;40.96;100385.00;4278601;28;20552;-70
2023/08/24 07:52:12;;;;;;;9.18;2.88;;;;;;;27.48;42.50;100384.59;4281826;28;20237;-70
2023/08/24 07:54:39;;;;;;;6.88;2.70;;;;;;;28.13;41.73;100381.03;4293140;28;21838;-68
2023/08/24 07:57:06;;;;;;;4.20;2.30;;;;;;;28.73;40.25;100390.13;4282607;28;20229;-70
2023/08/24 07:59:33;;;;;;;9.40;2.90;;;;;;;28.36;40.70;100384.53;4292540;28;20236;-69
2023/08/24 08:02:00;;;;;;;7.13;2.58;;;;;;;28.07;41.18;100385.72;4313777;28;20228;-70
2023/08/24 08:04:27;;;;;;;7.45;2.50;;;;;;;28.32;40.88;100389.00;4297354;28;21442;-68
2023/08/24 08:06:55;;;;;;;6.90;2.75;;;;;;;27.63;42.21;100377.50;4288757;28;20353;-71
2023/08/24 08:09:22;;;;;;;5.43;2.43;;;;;;;27.67;41.80;100384.25;4315688;28;26544;-71
2023/08/24 08:11:49;;;;;;;8.37;2.93;;;;;;;26.98;43.25;100378.16;4327510;28;26267;-73
2023/08/24 08:14:16;;;;;;;4.65;2.58;;;;;;;27.23;42.87;100381.53;4315721;28;20238;-73
2023/08/24 08:16:43;;;;;;;6.60;3.08;;;;;;;27.21;42.03;100378.97;4340058;28;20310;-70
2023/08/24 08:19:09;;;;;;;7.07;2.70;;;;;;;26.94;43.47;100377.00;4335067;28;21780;-72
2023/08/24 08:21:36;;;;;;;10.00;3.15;;;;;;;27.63;42.54;100383.94;4311979;28;20259;-70
2023/08/24 08:24:03;;;;;;;8.63;3.03;;;;;;;27.00;43.49;100381.53;4302357;28;21583;-69
2023/08/24 08:26:30;;;;;;;8.55;3.28;;;;;;;27.18;42.76;100387.84;4286434;28;20237;-68
2023/08/24 08:28:57;;;;;;;10.68;2.83;;;;;;;27.11;43.00;100382.50;4293865;28;20343;-66
2023/08/24 08:31:24;;;;;;;8.40;2.80;;;;;;;28.42;40.03;100380.69;4252618;28;20975;-68
2023/08/24 08:33:51;;;;;;;7.72;2.80;;;;;;;28.73;40.51;100381.75;4259964;28;20236;-66
2023/08/24 08:36:17;;;;;;;6.78;2.70;;;;;;;29.23;39.40;100387.78;4277599;28;20230;-68
2023/08/24 08:38:44;;;;;;;14.65;3.95;;;;;;;27.29;43.03;100381.31;4276662;28;20238;-67
2023/08/24 08:41:11;;;;;;;5.88;2.45;;;;;;;27.33;43.66;100376.06;4295865;28;20300;-69
2023/08/24 08:43:38;;;;;;;5.55;2.60;;;;;;;27.86;42.59;100375.50;4278154;28;20273;-70
2023/08/24 08:46:05;;;;;;;9.65;3.42;;;;;;;27.74;42.29;100381.22;4274741;28;20243;-66
2023/08/24 08:48:32;;;;;;;7.70;3.17;;;;;;;27.62;43.33;100379.47;4251832;28;20230;-72
2023/08/24 08:51:01;;;;;;;6.97;2.80;;;;;;;26.06;46.96;100381.22;4283116;28;25038;-70
2023/08/24 08:53:27;;;;;;;10.35;2.72;;;;;;;27.09;44.18;100378.28;4295502;28;20559;-73
2023/08/24 08:55:57;;;;;;;9.23;2.70;;;;;;;26.96;44.59;100385.06;4259743;28;20582;-70
2023/08/24 08:58:24;;;;;;;7.57;2.20;;;;;;;27.07;44.19;100377.69;4266279;28;20362;-70
2023/08/24 09:00:52;;;;;;;8.32;2.40;;;;;;;26.85;45.30;100373.81;4259304;28;20231;-70
2023/08/24 09:03:19;;;;;;;9.85;3.35;;;;;;;26.33;46.48;100377.81;4263705;28;20984;-71
2023/08/24 09:05:49;;;;;;;7.85;2.85;;;;;;;26.93;45.57;100372.53;4244334;28;20233;-69
2023/08/24 09:08:18;;;;;;;10.07;3.03;;;;;;;26.46;45.59;100381.31;4271011;28;21216;-70
2023/08/24 09:10:45;;;;;;;9.63;2.85;;;;;;;26.07;44.22;100382.94;4259373;28;20410;-71
2023/08/24 09:13:12;;;;;;;7.70;3.00;;;;;;;26.22;45.03;100370.41;4254168;28;20226;-72
2023/08/24 09:15:39;;;;;;;11.43;3.00;;;;;;;26.28;46.08;100374.09;4245906;28;21731;-68
2023/08/24 09:18:06;;;;;;;5.60;3.00;;;;;;;25.92;45.77;100374.31;4247929;28;20233;-70
2023/08/24 09:20:34;;;;;;;15.48;3.05;;;;;;;25.59;47.02;100370.44;4266288;28;20576;-69
2023/08/24 09:23:01;;;;;;;8.87;3.17;;;;;;;25.36;48.23;100376.88;4255328;28;20253;-68
2023/08/24 09:25:28;;;;;;;7.93;2.90;;;;;;;26.32;46.97;100372.50;4258272;28;20793;-70
2023/08/24 09:28:00;;;;;;;7.50;2.80;;;;;;;26.45;47.14;100366.59;4253049;28;21600;-70
2023/08/24 09:30:31;;;;;;;6.77;2.90;;;;;;;26.43;45.39;100354.91;4269183;28;20231;-65
2023/08/24 09:33:04;;;;;;;7.70;2.47;;;;;;;26.52;44.98;100358.94;4281856;28;21154;-68
2023/08/24 09:35:36;;;;;;;9.70;2.70;;;;;;;26.33;45.01;100358.38;4263585;28;20249;-71
2023/08/24 09:38:23;;;;;;;6.25;2.67;;;;;;;26.50;45.30;100361.09;4243629;28;20696;-67
2023/08/24 09:40:51;;;;;;;8.52;2.95;;;;;;;27.05;44.30;100361.31;4284347;28;20233;-67
2023/08/24 09:43:18;;;;;;;6.28;2.95;;;;;;;26.98;44.40;100361.50;4269216;28;21426;-69
2023/08/24 09:46:04;;;;;;;5.82;2.50;;;;;;;27.32;42.68;100361.34;4255005;28;20238;-72
2023/08/24 09:48:31;;;;;;;6.00;2.60;;;;;;;26.46;44.18;100365.50;4283979;28;20330;-70
2023/08/24 09:52:21;;;;;;;6.72;2.78;;;;;;;26.34;44.97;100361.97;4262352;28;20586;-70
2023/08/24 09:54:49;;;;;;;6.75;2.30;;;;;;;25.99;44.64;100358.34;4232839;28;20901;-67
2023/08/24 09:57:16;;;;;;;7.55;2.67;;;;;;;25.91;45.15;100358.78;4230048;28;20227;-69
2023/08/24 09:59:43;;;;;;;8.10;2.90;;;;;;;25.67;45.61;100356.19;4224862;28;20235;-66
2023/08/24 10:02:20;;;;;;;5.80;2.90;;;;;;;25.66;45.28;100364.72;4238185;28;20851;-51
2023/08/24 10:04:51;;;;;;;7.83;3.10;;;;;;;25.43;46.02;100361.84;4229396;28;21161;-72
2023/08/24 10:07:20;;;;;;;7.50;2.93;;;;;;;25.68;46.19;100362.53;4217690;28;21128;-71
2023/08/24 10:09:59;;;;;;;7.27;3.23;;;;;;;25.47;45.73;100363.00;4227809;28;24425;-71
2023/08/24 10:12:28;;;;;;;9.33;3.10;;;;;;;25.46;46.90;100361.31;4222635;28;20361;-71
2023/08/24 10:15:03;;;;;;;12.97;2.87;;;;;;;25.51;45.65;100357.81;4204916;28;20234;-71
2023/08/24 10:17:32;;;;;;;7.17;2.97;;;;;;;25.58;45.61;100363.22;4237907;28;20250;-72
2023/08/24 10:20:05;;;;;;;8.80;2.60;;;;;;;25.66;45.05;100364.72;4269771;28;22875;-72
2023/08/24 10:22:35;;;;;;;8.87;3.03;;;;;;;26.18;45.09;100358.97;4239134;28;20247;-73
2023/08/24 10:25:03;;;;;;;5.73;2.40;;;;;;;26.28;45.39;100354.69;4207096;28;20400;-73
2023/08/24 10:27:30;;;;;;;6.00;2.50;;;;;;;26.87;44.14;100354.16;4233328;28;20342;-71
2023/08/24 10:29:58;;;;;;;4.40;2.43;;;;;;;26.99;43.66;100354.00;4230943;28;23858;-73
2023/08/24 10:32:26;;;;;;;7.97;2.10;;;;;;;27.07;43.42;100350.78;4247952;28;20238;-74
2023/08/24 10:34:53;;;;;;;6.40;2.53;;;;;;;27.26;42.43;100347.63;4210915;28;25708;-74
2023/08/24 10:37:27;;;;;;;7.73;2.50;;;;;;;26.84;42.78;100351.88;4242970;28;20224;-74
2023/08/24 10:39:54;;;;;;;6.30;2.40;;;;;;;26.96;42.73;100348.97;4255182;28;23477;-72
2023/08/24 10:42:21;;;;;;;5.53;2.70;;;;;;;26.98;43.12;100346.78;4232842;28;20614;-72
2023/08/24 10:44:51;;;;;;;4.63;2.93;;;;;;;26.60;43.91;100337.38;4225807;28;20233;-73
2023/08/24 10:47:19;;;;;;;5.37;2.57;;;;;;;26.68;43.95;100343.31;4223192;28;20239;-72
2023/08/24 10:49:58;;;;;;;7.60;2.80;;;;;;;26.94;44.85;100349.22;4227263;28;20974;-72
2023/08/24 10:52:35;;;;;;;7.40;2.60;;;;;;;26.49;44.97;100333.63;4229273;28;20260;-72
2023/08/24 10:55:03;;;;;;;5.07;2.30;;;;;;;26.95;42.95;100328.69;4218293;28;20273;-73
2023/08/24 10:57:42;;;;;;;5.03;2.33;;;;;;;26.99;44.16;100335.38;4211595;28;20244;-74
2023/08/24 11:00:12;;;;;;;5.63;2.50;;;;;;;26.84;43.35;100341.63;4215483;28;21193;-70
2023/08/24 11:02:50;;;;;;;7.10;2.50;;;;;;;26.90;44.24;100331.38;4201969;28;20229;-74
2023/08/24 11:05:35;;;;;;;5.87;2.37;;;;;;;26.88;44.23;100328.88;4211560;28;20322;-72
2023/08/24 11:08:06;;;;;;;5.63;1.80;;;;;;;27.39;42.43;100321.38;4190697;28;20326;-71
2023/08/24 11:10:41;;;;;;;5.50;2.30;;;;;;;27.03;43.42;100321.81;4199554;28;20247;-72
2023/08/24 11:13:16;;;;;;;5.80;2.33;;;;;;;26.57;43.74;100322.91;4202189;28;20790;-71
2023/08/24 11:15:44;;;;;;;4.27;2.30;;;;;;;26.57;44.05;100324.84;4221765;28;20244;-70
2023/08/24 11:18:29;;;;;;;9.73;2.20;;;;;;;27.00;43.71;100330.69;4203302;28;20247;-73
2023/08/24 11:20:55;;;;;;;5.83;2.90;;;;;;;26.45;44.75;100327.75;4207954;28;20247;-72
2023/08/24 11:23:23;;;;;;;3.87;2.70;;;;;;;26.08;45.49;100323.59;4205272;28;20371;-71
2023/08/24 11:25:56;;;;;;;7.30;3.13;;;;;;;26.29;45.68;100321.13;4205545;28;21416;-71
2023/08/24 11:28:25;;;;;;;7.20;2.67;;;;;;;26.28;44.95;100304.72;4206993;28;20288;-74